KBHM

Birmingham-Shuttlesworth International Airport

Birmingham, Alabama, USA
METAR KBHM 170653Z 00000KT 10SM CLR 03/M01 A3023 RMK AO2 SLP237 T00281011
Observed Flight Rules
Dec-17 @ 06:53 UTC (an hour ago) Visual Flight Rules
Wind Visibility Clouds
Calm 10 miles
  • Clear skies
Temperatures Readings
Current 3°C / 37°F
Dewpoint -1°C / 30°F
Humidity 75%
Altimeter 30.23" Hg
Pressure 1023.7 hPa
Elevation 197
METAR KBHM 170653Z 00000KT 10SM CLR 03/M01 A3023 RMK AO2 SLP237 T00281011
Observed Flight Rules
Dec-17 @ 06:53 UTC
(an hour ago)
VFR
Wind Visibility
Calm 10 miles
Clouds
  • Clear skies
Temperature Dewpoint
3°C / 37°F -1°C / 30°F
Humidity Altimeter Pressure
75% 30.23" Hg 1023.7 hPa